createdAt,value
2022-08-23T00:02:03.337Z,7.47
2022-08-23T00:04:35.362Z,5.53
2022-08-23T00:07:04.102Z,6.82
2022-08-23T00:09:32.243Z,6.15
2022-08-23T00:12:06.367Z,5.57
2022-08-23T00:14:36.933Z,6.15
2022-08-23T00:17:05.757Z,6.78
2022-08-23T00:19:34.051Z,7.07
2022-08-23T00:22:02.178Z,5.57
2022-08-23T00:24:30.217Z,7.10
2022-08-23T00:27:00.803Z,7.13
2022-08-23T00:29:31.279Z,6.35
2022-08-23T00:32:01.158Z,8.20
2022-08-23T00:34:29.605Z,6.05
2022-08-23T00:36:57.993Z,5.97
2022-08-23T00:39:26.151Z,6.43
2022-08-23T00:41:57.696Z,5.75
2022-08-23T00:44:45.722Z,5.88
2022-08-23T00:47:32.998Z,6.32
2022-08-23T00:50:04.206Z,7.50
2022-08-23T00:52:51.646Z,6.05
2022-08-23T00:55:22.293Z,8.80
2022-08-23T00:57:50.525Z,9.23
2022-08-23T01:00:18.947Z,7.15
2022-08-23T01:02:49.299Z,6.45
2022-08-23T01:05:17.518Z,6.28
2022-08-23T01:07:47.937Z,7.50
2022-08-23T01:10:21.004Z,6.45
2022-08-23T01:12:52.236Z,7.05
2022-08-23T01:15:23.260Z,6.70
2022-08-23T01:17:55.704Z,9.23
2022-08-23T01:20:26.968Z,6.38
2022-08-23T01:22:58.562Z,10.82
2022-08-23T01:25:29.290Z,6.43
2022-08-23T01:27:58.160Z,6.47
2022-08-23T01:30:27.771Z,7.45
2022-08-23T01:32:56.920Z,6.35
2022-08-23T01:38:00.027Z,7.82
2022-08-23T01:40:30.206Z,9.38
2022-08-23T01:42:58.260Z,7.20
2022-08-23T01:45:26.404Z,7.75
2022-08-23T01:47:54.590Z,7.28
2022-08-23T01:50:22.939Z,7.47
2022-08-23T01:52:51.042Z,6.47
2022-08-23T01:55:19.220Z,9.75
2022-08-23T01:57:50.990Z,6.85
2022-08-23T02:00:20.037Z,7.28
2022-08-23T02:02:48.253Z,7.00
2022-08-23T02:05:19.035Z,9.77
2022-08-23T02:07:47.332Z,7.78
2022-08-23T02:10:15.635Z,9.52
2022-08-23T02:12:43.631Z,8.23
2022-08-23T02:15:13.535Z,6.88
2022-08-23T02:17:41.656Z,8.82
2022-08-23T02:20:10.286Z,9.27
2022-08-23T02:22:38.979Z,8.38
2022-08-23T02:25:07.674Z,8.02
2022-08-23T02:27:36.014Z,7.70
2022-08-23T02:30:05.209Z,8.88
2022-08-23T02:32:34.815Z,11.18
2022-08-23T02:35:04.822Z,9.10
2022-08-23T02:37:33.498Z,8.68
2022-08-23T02:40:01.673Z,9.57
2022-08-23T02:42:29.811Z,9.10
2022-08-23T02:44:57.817Z,7.72
2022-08-23T02:47:26.007Z,9.85
2022-08-23T02:49:55.578Z,10.63
2022-08-23T02:52:23.681Z,9.05
2022-08-23T02:54:53.279Z,9.07
2022-08-23T02:57:26.640Z,9.27
2022-08-23T02:59:55.751Z,9.85
2022-08-23T03:02:24.033Z,9.25
2022-08-23T03:04:53.179Z,9.77
2022-08-23T03:07:22.578Z,10.48
2022-08-23T03:09:50.653Z,9.43
2022-08-23T03:12:18.749Z,8.73
2022-08-23T03:14:46.823Z,10.80
2022-08-23T03:17:15.755Z,9.27
2022-08-23T03:19:43.773Z,10.02
2022-08-23T03:22:11.894Z,9.52
2022-08-23T03:24:41.397Z,8.30
2022-08-23T03:27:09.468Z,10.95
2022-08-23T03:29:37.753Z,9.23
2022-08-23T03:32:07.393Z,8.85
2022-08-23T03:34:35.841Z,8.30
2022-08-23T03:37:04.226Z,10.18
2022-08-23T03:39:32.511Z,9.00
2022-08-23T03:42:01.945Z,11.32
2022-08-23T03:44:30.094Z,9.75
2022-08-23T03:46:58.237Z,9.23
2022-08-23T03:49:26.366Z,9.85
2022-08-23T03:51:54.579Z,9.40
2022-08-23T03:54:22.904Z,9.85
2022-08-23T03:56:52.179Z,10.98
2022-08-23T03:59:21.797Z,10.57
2022-08-23T04:01:49.997Z,11.95
2022-08-23T04:04:18.160Z,10.95
2022-08-23T04:06:46.624Z,12.57
2022-08-23T04:09:16.360Z,11.15
2022-08-23T04:11:44.937Z,9.70
2022-08-23T04:14:13.297Z,12.60
2022-08-23T04:16:43.219Z,11.30
2022-08-23T04:19:13.880Z,11.98
2022-08-23T04:21:44.050Z,11.25
2022-08-23T04:24:12.171Z,10.82
2022-08-23T04:26:40.570Z,9.07
2022-08-23T04:29:08.752Z,11.80
2022-08-23T04:31:38.741Z,10.00
2022-08-23T04:34:08.478Z,9.02
2022-08-23T04:36:38.661Z,8.75
2022-08-23T04:39:06.999Z,11.13
2022-08-23T04:41:52.487Z,10.65
2022-08-23T04:44:20.676Z,11.45
2022-08-23T04:46:48.860Z,13.07
2022-08-23T04:49:18.610Z,11.82
2022-08-23T04:51:53.867Z,13.55
2022-08-23T04:54:23.302Z,11.73
2022-08-23T04:56:51.866Z,12.00
2022-08-23T04:59:20.153Z,12.48
2022-08-23T05:01:48.392Z,13.07
2022-08-23T05:04:16.567Z,15.35
2022-08-23T05:06:46.501Z,12.57
2022-08-23T05:09:19.878Z,17.45
2022-08-23T05:11:49.423Z,12.00
2022-08-23T05:14:17.700Z,11.90
2022-08-23T05:16:45.704Z,12.27
2022-08-23T05:19:13.840Z,14.70
2022-08-23T05:21:41.937Z,13.30
2022-08-23T05:24:13.824Z,15.95
2022-08-23T05:26:42.232Z,13.82
2022-08-23T05:29:10.253Z,15.32
2022-08-23T05:31:38.354Z,16.83
2022-08-23T05:34:06.602Z,15.27
2022-08-23T05:36:55.890Z,14.25
2022-08-23T05:39:45.748Z,13.30
2022-08-23T05:42:33.891Z,13.77
2022-08-23T05:45:22.042Z,16.95
2022-08-23T05:48:09.993Z,15.32
2022-08-23T05:50:57.917Z,14.80
2022-08-23T05:53:46.921Z,13.48
2022-08-23T05:56:41.484Z,14.93
2022-08-23T05:59:29.520Z,13.20
2022-08-23T06:02:17.402Z,13.75
2022-08-23T06:05:05.607Z,12.05
2022-08-23T06:07:53.614Z,13.40
2022-08-23T06:10:42.519Z,14.00
2022-08-23T06:13:32.235Z,14.85
2022-08-23T06:16:21.029Z,12.35
2022-08-23T06:18:49.674Z,14.63
2022-08-23T06:21:18.427Z,13.13
2022-08-23T06:23:47.822Z,12.13
2022-08-23T06:26:17.291Z,12.27
2022-08-23T06:28:50.798Z,13.23
2022-08-23T06:31:41.038Z,12.27
2022-08-23T06:34:14.842Z,14.23
2022-08-23T06:36:43.020Z,13.85
2022-08-23T06:39:11.933Z,13.95
2022-08-23T06:41:40.347Z,13.60
2022-08-23T06:44:10.136Z,13.57
2022-08-23T06:46:39.377Z,15.15
2022-08-23T06:49:10.467Z,14.20
2022-08-23T06:51:39.960Z,13.02
2022-08-23T06:54:10.645Z,13.07
2022-08-23T06:56:41.064Z,13.65
2022-08-23T06:59:13.577Z,11.48
2022-08-23T07:01:46.043Z,12.93
2022-08-23T07:04:16.138Z,12.45
2022-08-23T07:06:44.617Z,12.55
2022-08-23T07:09:13.447Z,12.75
2022-08-23T07:11:42.124Z,11.68
2022-08-23T07:14:11.505Z,10.88
2022-08-23T07:16:42.008Z,13.90
2022-08-23T07:19:10.357Z,9.07
2022-08-23T07:21:38.605Z,10.15
2022-08-23T07:24:06.834Z,9.88
2022-08-23T07:26:34.932Z,11.25
2022-08-23T07:29:04.291Z,10.25
2022-08-23T07:31:35.458Z,10.57
2022-08-23T07:34:08.841Z,8.95
2022-08-23T07:36:37.700Z,9.90
2022-08-23T07:39:06.926Z,9.30
2022-08-23T07:41:35.923Z,8.45
2022-08-23T07:44:05.923Z,10.50
2022-08-23T07:46:34.558Z,8.30
2022-08-23T07:49:04.555Z,6.78
2022-08-23T07:51:35.305Z,8.13
2022-08-23T07:54:03.959Z,7.80
2022-08-23T07:56:33.279Z,8.02
2022-08-23T07:59:01.717Z,9.25
2022-08-23T08:01:30.669Z,6.93
2022-08-23T08:04:00.096Z,6.93
2022-08-23T08:06:29.574Z,6.95
2022-08-23T08:08:59.695Z,7.57
2022-08-23T08:11:34.972Z,6.28
2022-08-23T08:14:04.151Z,8.25
2022-08-23T08:16:33.691Z,8.27
2022-08-23T08:19:02.613Z,6.00
2022-08-23T08:21:30.920Z,6.00
2022-08-23T08:24:00.421Z,6.60
2022-08-23T08:26:29.040Z,6.80
2022-08-23T08:28:57.410Z,8.25
2022-08-23T08:31:26.082Z,7.45
2022-08-23T08:33:55.481Z,6.15
2022-08-23T08:36:31.267Z,6.15
2022-08-23T08:41:37.562Z,6.40
2022-08-23T08:44:09.551Z,6.55
2022-08-23T08:46:42.351Z,6.20
2022-08-23T08:49:14.149Z,5.63
2022-08-23T08:51:45.457Z,6.53
2022-08-23T08:54:15.313Z,5.65
2022-08-23T08:56:48.300Z,6.38
2022-08-23T08:59:21.356Z,5.00
2022-08-23T09:01:49.564Z,4.80
2022-08-23T09:04:18.157Z,4.35
2022-08-23T09:06:51.663Z,6.03
2022-08-23T09:09:26.199Z,4.45
2022-08-23T09:11:59.852Z,5.78
2022-08-23T09:14:38.130Z,6.97
2022-08-23T09:17:08.851Z,4.95
2022-08-23T09:19:38.870Z,5.28
2022-08-23T09:22:08.983Z,7.40
2022-08-23T09:24:41.378Z,5.68
2022-08-23T09:27:11.414Z,5.57
2022-08-23T09:29:40.534Z,5.45
2022-08-23T09:32:26.486Z,5.15
2022-08-23T09:35:06.279Z,5.32
2022-08-23T09:37:46.734Z,5.18
2022-08-23T09:40:17.397Z,7.95
2022-08-23T09:42:48.015Z,6.40
2022-08-23T09:45:28.109Z,4.75
2022-08-23T09:47:57.180Z,6.13
2022-08-23T09:50:27.243Z,5.18
2022-08-23T09:52:57.301Z,5.80
2022-08-23T09:55:31.747Z,5.13
2022-08-23T09:58:01.867Z,6.88
2022-08-23T10:00:32.510Z,5.38
2022-08-23T10:03:15.573Z,4.22
2022-08-23T10:05:43.600Z,4.90
2022-08-23T10:08:22.742Z,4.80
2022-08-23T10:10:52.192Z,4.45
2022-08-23T10:13:22.051Z,4.38
2022-08-23T10:15:55.181Z,4.97
2022-08-23T10:18:29.406Z,6.03
2022-08-23T10:21:03.073Z,4.70
2022-08-23T10:23:37.163Z,5.95
2022-08-23T10:26:09.765Z,5.82
2022-08-23T10:29:01.500Z,3.88
2022-08-23T10:31:36.224Z,6.72
2022-08-23T10:34:24.404Z,4.60
2022-08-23T10:36:58.467Z,4.65
2022-08-23T10:39:28.253Z,4.70
2022-08-23T10:42:00.108Z,4.10
2022-08-23T10:44:35.398Z,5.80
2022-08-23T10:47:14.503Z,4.63
2022-08-23T10:49:43.494Z,4.13
2022-08-23T10:52:21.915Z,4.47
2022-08-23T10:55:00.232Z,5.40
2022-08-23T10:57:32.122Z,4.80
2022-08-23T11:00:02.435Z,7.03
2022-08-23T11:02:33.655Z,4.47
2022-08-23T11:05:05.586Z,3.85
2022-08-23T11:07:35.109Z,3.78
2022-08-23T11:10:16.407Z,3.50
2022-08-23T11:12:53.499Z,5.47
2022-08-23T11:15:26.820Z,4.80
2022-08-23T11:17:57.474Z,6.25
2022-08-23T11:20:43.989Z,5.05
2022-08-23T11:23:15.163Z,5.10
2022-08-23T11:25:43.918Z,5.07
2022-08-23T11:28:30.683Z,4.38
2022-08-23T11:31:19.165Z,4.95
2022-08-23T11:33:49.361Z,3.95
2022-08-23T11:36:21.849Z,4.93
2022-08-23T11:39:10.268Z,3.33
2022-08-23T11:41:58.447Z,4.00
2022-08-23T11:44:28.899Z,4.18
2022-08-23T11:47:02.396Z,4.32
2022-08-23T11:49:53.826Z,3.03
2022-08-23T11:52:29.175Z,3.25
2022-08-23T11:55:08.343Z,4.60
2022-08-23T11:57:48.742Z,4.13
2022-08-23T12:00:22.751Z,3.47
2022-08-23T12:03:03.298Z,4.18
2022-08-23T12:05:50.515Z,3.40
2022-08-23T12:08:29.082Z,4.07
2022-08-23T12:11:05.458Z,4.07
2022-08-23T12:13:45.968Z,4.35
2022-08-23T12:16:29.087Z,3.85
2022-08-23T12:18:59.645Z,5.07
2022-08-23T12:21:29.207Z,4.65
2022-08-23T12:24:00.090Z,3.90
2022-08-23T12:26:31.436Z,4.35
2022-08-23T12:29:02.302Z,6.25
2022-08-23T12:31:37.621Z,3.90
2022-08-23T12:34:23.712Z,4.25
2022-08-23T12:36:58.860Z,4.45
2022-08-23T12:39:29.923Z,3.70
2022-08-23T12:41:59.624Z,3.58
2022-08-23T12:44:28.890Z,3.25
2022-08-23T12:46:57.634Z,3.55
2022-08-23T12:49:28.309Z,6.57
2022-08-23T12:51:59.103Z,5.13
2022-08-23T12:54:35.127Z,4.95
2022-08-23T12:57:10.559Z,4.03
2022-08-23T12:59:40.659Z,4.78
2022-08-23T13:02:11.725Z,4.22
2022-08-23T13:04:40.832Z,4.57
2022-08-23T13:07:12.529Z,4.13
2022-08-23T13:09:41.982Z,3.80
2022-08-23T13:12:11.785Z,4.10
2022-08-23T13:14:44.301Z,4.60
2022-08-23T13:17:20.242Z,4.75
2022-08-23T13:19:49.036Z,4.40
2022-08-23T13:22:23.492Z,4.88
2022-08-23T13:25:27.035Z,5.90
2022-08-23T13:27:54.735Z,4.90
2022-08-23T13:30:24.367Z,4.10
2022-08-23T13:32:53.044Z,6.28
2022-08-23T13:35:34.189Z,4.93
2022-08-23T13:38:20.977Z,4.47
2022-08-23T13:40:55.502Z,3.78
2022-08-23T13:43:25.475Z,4.07
2022-08-23T13:45:55.522Z,2.95
2022-08-23T13:48:25.600Z,4.22
2022-08-23T13:50:54.437Z,4.45
2022-08-23T13:53:24.012Z,3.67
2022-08-23T13:55:53.575Z,3.78
2022-08-23T13:58:26.951Z,4.50
2022-08-23T14:00:56.085Z,4.30
2022-08-23T14:03:27.609Z,5.05
2022-08-23T14:05:55.746Z,4.05
2022-08-23T14:08:25.380Z,5.72
2022-08-23T14:10:53.553Z,5.45
2022-08-23T14:13:22.994Z,4.35
2022-08-23T14:15:56.028Z,3.65
2022-08-23T14:18:25.466Z,4.25
2022-08-23T14:20:53.804Z,4.10
2022-08-23T14:23:21.911Z,4.30
2022-08-23T14:25:52.540Z,3.90
2022-08-23T14:28:20.999Z,4.90
2022-08-23T14:30:49.260Z,4.65
2022-08-23T14:33:17.394Z,3.70
2022-08-23T14:35:45.436Z,5.35
2022-08-23T14:38:15.396Z,4.95
2022-08-23T14:40:46.491Z,4.97
2022-08-23T14:43:15.984Z,4.07
2022-08-23T14:45:44.145Z,4.63
2022-08-23T14:48:12.819Z,5.20
2022-08-23T14:50:41.452Z,5.47
2022-08-23T14:53:09.732Z,5.15
2022-08-23T14:55:37.984Z,3.35
2022-08-23T14:58:06.296Z,4.88
2022-08-23T15:00:36.714Z,5.57
2022-08-23T15:03:09.660Z,3.83
2022-08-23T15:05:38.300Z,4.93
2022-08-23T15:08:06.711Z,4.88
2022-08-23T15:10:50.534Z,5.95
2022-08-23T15:13:30.023Z,4.03
2022-08-23T15:16:03.007Z,4.03
2022-08-23T15:18:31.869Z,3.92
2022-08-23T15:21:02.277Z,4.10
2022-08-23T15:23:32.431Z,5.05
2022-08-23T15:26:06.039Z,4.75
2022-08-23T15:28:34.408Z,5.15
2022-08-23T15:31:05.376Z,4.95
2022-08-23T15:33:33.844Z,5.20
2022-08-23T15:36:03.474Z,4.40
2022-08-23T15:38:32.438Z,5.07
2022-08-23T15:41:00.521Z,4.10
2022-08-23T15:43:34.902Z,5.07
2022-08-23T15:46:08.418Z,4.65
2022-08-23T15:48:38.448Z,4.95
2022-08-23T15:51:10.375Z,4.15
2022-08-23T15:53:39.401Z,5.43
2022-08-23T15:56:10.045Z,4.50
2022-08-23T15:58:38.267Z,4.53
2022-08-23T16:01:10.510Z,4.70
2022-08-23T16:03:39.444Z,5.00
2022-08-23T16:06:07.876Z,5.90
2022-08-23T16:08:38.302Z,5.32
2022-08-23T16:11:12.211Z,5.78
2022-08-23T16:13:44.198Z,4.15
2022-08-23T16:16:16.597Z,4.10
2022-08-23T16:18:44.708Z,5.97
2022-08-23T16:21:13.261Z,5.63
2022-08-23T16:23:43.665Z,5.85
2022-08-23T16:26:15.121Z,6.72
2022-08-23T16:28:43.987Z,5.13
2022-08-23T16:31:17.123Z,3.70
2022-08-23T16:33:45.728Z,4.28
2022-08-23T16:36:14.077Z,4.13
2022-08-23T16:38:42.292Z,5.32
2022-08-23T16:41:10.265Z,5.13
2022-08-23T16:43:38.513Z,4.03
2022-08-23T16:46:07.193Z,4.78
2022-08-23T16:48:37.215Z,4.80
2022-08-23T16:51:05.574Z,4.85
2022-08-23T16:53:33.694Z,4.28
2022-08-23T16:56:01.832Z,5.88
2022-08-23T16:58:30.206Z,5.47
2022-08-23T17:00:59.263Z,5.72
2022-08-23T17:03:27.810Z,4.85
2022-08-23T17:05:57.287Z,5.68
2022-08-23T17:08:25.355Z,5.18
2022-08-23T17:10:53.553Z,5.97
2022-08-23T17:13:21.682Z,4.50
2022-08-23T17:15:49.783Z,6.35
2022-08-23T17:18:18.149Z,6.55
2022-08-23T17:20:46.321Z,5.03
2022-08-23T17:23:15.734Z,5.82
2022-08-23T17:25:47.711Z,5.15
2022-08-23T17:28:16.052Z,5.40
2022-08-23T17:30:44.633Z,4.70
2022-08-23T17:33:12.842Z,7.43
2022-08-23T17:35:41.042Z,5.60
2022-08-23T17:38:09.590Z,5.35
2022-08-23T17:40:39.994Z,5.05
2022-08-23T17:43:08.193Z,6.20
2022-08-23T17:45:40.575Z,4.65
2022-08-23T17:48:08.688Z,5.05
2022-08-23T17:50:36.842Z,5.35
2022-08-23T17:53:08.005Z,6.97
2022-08-23T17:55:36.945Z,5.10
2022-08-23T17:58:08.614Z,5.05
2022-08-23T18:00:39.110Z,6.35
2022-08-23T18:03:07.790Z,5.55
2022-08-23T18:05:36.401Z,5.38
2022-08-23T18:08:05.065Z,5.53
2022-08-23T18:10:33.101Z,4.43
2022-08-23T18:13:01.429Z,6.13
2022-08-23T18:15:31.444Z,8.38
2022-08-23T18:18:00.487Z,5.97
2022-08-23T18:20:29.038Z,6.03
2022-08-23T18:22:58.348Z,5.75
2022-08-23T18:25:26.906Z,6.60
2022-08-23T18:28:06.304Z,4.85
2022-08-23T18:30:36.390Z,7.25
2022-08-23T18:33:04.699Z,5.03
2022-08-23T18:35:33.556Z,7.22
2022-08-23T18:38:02.578Z,7.25
2022-08-23T18:40:31.070Z,6.78
2022-08-23T18:42:59.300Z,7.60
2022-08-23T18:45:29.265Z,7.35
2022-08-23T18:47:59.274Z,5.40
2022-08-23T18:50:27.545Z,4.53
2022-08-23T18:52:55.814Z,5.30
2022-08-23T18:55:23.979Z,5.50
2022-08-23T18:57:52.115Z,4.68
2022-08-23T19:00:21.080Z,8.82
2022-08-23T19:02:49.419Z,4.68
2022-08-23T19:05:18.902Z,7.72
2022-08-23T19:07:47.045Z,6.80
2022-08-23T19:10:20.153Z,7.10
2022-08-23T19:12:52.803Z,5.72
2022-08-23T19:15:22.548Z,7.55
2022-08-23T19:17:50.583Z,5.93
2022-08-23T19:20:20.711Z,6.13
2022-08-23T19:22:48.829Z,6.43
2022-08-23T19:25:17.049Z,4.95
2022-08-23T19:27:45.076Z,6.03
2022-08-23T19:30:13.835Z,5.43
2022-08-23T19:32:46.368Z,5.60
2022-08-23T19:35:14.658Z,8.10
2022-08-23T19:37:44.961Z,5.20
2022-08-23T19:40:14.485Z,6.65
2022-08-23T19:42:42.645Z,8.68
2022-08-23T19:45:11.348Z,7.70
2022-08-23T19:47:40.354Z,6.82
2022-08-23T19:50:09.962Z,6.53
2022-08-23T19:52:38.149Z,8.88
2022-08-23T19:55:08.829Z,9.32
2022-08-23T19:57:37.535Z,8.75
2022-08-23T20:00:10.285Z,6.25
2022-08-23T20:02:40.871Z,7.78
2022-08-23T20:05:09.910Z,5.78
2022-08-23T20:07:39.865Z,6.40
2022-08-23T20:10:12.123Z,6.32
2022-08-23T20:12:41.684Z,8.10
2022-08-23T20:15:10.285Z,5.85
2022-08-23T20:17:39.447Z,5.65
2022-08-23T20:20:08.667Z,9.00
2022-08-23T20:22:54.339Z,7.45
2022-08-23T20:25:23.865Z,6.65
2022-08-23T20:27:52.404Z,8.18
2022-08-23T20:30:20.853Z,7.05
2022-08-23T20:32:48.892Z,7.63
2022-08-23T20:35:16.993Z,6.97
2022-08-23T20:37:45.015Z,6.85
2022-08-23T20:40:14.624Z,7.35
2022-08-23T20:42:44.259Z,7.22
2022-08-23T20:45:12.608Z,6.70
2022-08-23T20:47:41.340Z,6.22
2022-08-23T20:50:09.742Z,6.40
2022-08-23T20:52:37.876Z,6.93
2022-08-23T20:55:10.677Z,6.60
2022-08-23T20:57:39.546Z,5.97
2022-08-23T21:00:09.854Z,9.23
2022-08-23T21:02:37.894Z,6.95
2022-08-23T21:05:06.523Z,6.22
2022-08-23T21:07:35.167Z,7.03
2022-08-23T21:10:05.283Z,6.70
2022-08-23T21:12:33.376Z,8.45
2022-08-23T21:15:01.518Z,7.95
2022-08-23T21:17:30.943Z,8.73
2022-08-23T21:19:59.004Z,6.45
2022-08-23T21:22:32.032Z,6.13
2022-08-23T21:25:00.610Z,7.50
2022-08-23T21:27:29.063Z,5.88
2022-08-23T21:29:57.106Z,5.53
2022-08-23T21:32:25.233Z,7.00
2022-08-23T21:34:58.248Z,7.90
2022-08-23T21:37:26.727Z,8.30
2022-08-23T21:39:55.569Z,7.85
2022-08-23T21:42:25.082Z,8.80
2022-08-23T21:44:53.713Z,7.63
2022-08-23T21:47:21.818Z,5.85
2022-08-23T21:49:49.825Z,7.18
2022-08-23T21:52:19.293Z,6.90
2022-08-23T21:54:47.341Z,6.28
2022-08-23T21:57:16.560Z,8.77
2022-08-23T21:59:44.625Z,8.88
2022-08-23T22:02:12.653Z,6.32
2022-08-23T22:04:40.855Z,6.78
2022-08-23T22:07:08.916Z,7.57
2022-08-23T22:09:38.381Z,7.10
2022-08-23T22:12:06.673Z,8.30
2022-08-23T22:14:35.878Z,7.38
2022-08-23T22:17:04.180Z,6.90
2022-08-23T22:19:32.218Z,7.20
2022-08-23T22:22:01.092Z,8.63
2022-08-23T22:24:29.113Z,7.65
2022-08-23T22:26:58.723Z,7.05
2022-08-23T22:29:26.782Z,6.57
2022-08-23T22:31:54.836Z,5.85
2022-08-23T22:34:23.218Z,7.97
2022-08-23T22:36:51.626Z,6.53
2022-08-23T22:39:21.056Z,6.97
2022-08-23T22:41:49.070Z,6.85
2022-08-23T22:44:18.964Z,7.82
2022-08-23T22:46:47.098Z,8.02
2022-08-23T22:49:15.196Z,8.20
2022-08-23T22:51:43.798Z,8.20
2022-08-23T22:54:12.528Z,7.95
2022-08-23T22:56:42.650Z,6.68
2022-08-23T22:59:11.057Z,7.18
2022-08-23T23:01:42.583Z,8.48
2022-08-23T23:04:13.296Z,7.65
2022-08-23T23:06:42.639Z,7.43
2022-08-23T23:09:11.519Z,6.93
2022-08-23T23:11:40.447Z,7.28
2022-08-23T23:14:09.120Z,6.43
2022-08-23T23:16:37.158Z,7.95
2022-08-23T23:19:24.667Z,9.02
2022-08-23T23:21:53.822Z,7.90
2022-08-23T23:24:23.216Z,6.75
2022-08-23T23:26:51.880Z,9.05
2022-08-23T23:29:20.025Z,8.43
2022-08-23T23:31:48.054Z,8.32
2022-08-23T23:34:17.731Z,6.82
2022-08-23T23:36:45.876Z,7.85
2022-08-23T23:39:14.494Z,8.73
2022-08-23T23:41:43.006Z,9.07
2022-08-23T23:44:11.157Z,6.40
2022-08-23T23:46:39.177Z,8.63
2022-08-23T23:49:07.194Z,5.78
2022-08-23T23:51:36.654Z,8.88
2022-08-23T23:54:07.484Z,7.45
2022-08-23T23:56:35.688Z,6.90
2022-08-23T23:59:03.718Z,8.00
